Koninklijk Nederlands Meteorologisch Instituut; Ministerie van Verkeer en Waterstaat

 
Weer
Nederlandse vliegveldverwachtingen (TAF)
ZCZC
FT270500 EHAM     AMSTERDAM/SCHIPHOL   NLD   -3 m.
TAF EHAM 270510Z 2706/2812 29017KT 9999 SCT020
    TEMPO 2706/2708 7000 SHRA FEW013 SCT018CB
    TEMPO 2706/2712 30020G30KT
    BECMG 2712/2715 30013KT
    BECMG 2717/2720 28006KT CAVOK
    BECMG 2720/2723 19005KT 6000
    PROB30 2800/2805 4000 BR
    BECMG 2806/2809 18015KT 9000 -RADZ FEW012 BKN030
    BECMG 2809/2812 6000 SCT008 BKN012=

ZCZC
FT270500 EHGG     GRONINGEN/EELDE   NLD   5 m.
TAF EHGG 270439Z 2706/2812 28013KT 9999 SCT015 BKN020
    BECMG 2706/2709 31020G30KT
    TEMPO 2706/2715 7000 -SHRA SCT015CB
    BECMG 2717/2720 27006KT
    BECMG 2805/2808 18010KT
    BECMG 2810/2812 19015G25KT 8000 -RA BKN030=

ZCZC
FT270500 EHRD     ROTTERDAM/THE HAGUE AIRPORT   NLD   -5 m.
TAF EHRD 270510Z 2706/2812 29017KT 9999 SCT020
    TEMPO 2706/2712 30020G30KT
    BECMG 2712/2715 30013KT
    BECMG 2717/2720 28006KT CAVOK
    BECMG 2720/2723 19005KT 6000
    PROB30 2800/2805 4000 BR
    BECMG 2806/2809 18015KT 9000 -RADZ FEW012 BKN030
    BECMG 2809/2812 6000 SCT008 BKN012=

ZCZC
FT270500 EHBK     MAASTRICHT/MAASTRICHT-AACHEN   NLD   114 m.
TAF EHBK 270439Z 2706/2812 26010KT 9999 BKN030
    BECMG 2706/2709 29015G25KT SCT030
    PROB30 TEMPO 2706/2712 7000 -SHRA SCT015TCU
    BECMG 2718/2721 19005KT CAVOK
    PROB30 2800/2806 6000
    BECMG 2809/2812 20015G25KT 8000 -RA BKN015=

ZCZC
FT270500 EHEH     EINDHOVEN/EINDHOVEN   NLD   22 m.
TAF EHEH 270508Z 2706/2812 27010KT CAVOK
    BECMG 2706/2709 29015G25KT
    PROB30 TEMPO 2706/2710 SCT015CB BKN020
    BECMG 2715/2718 28010KT
    BECMG 2719/2721 25004KT
    BECMG 2802/2804 18005KT
    PROB40 TEMPO 2803/2806 4000 BR
    BECMG 2810/2812 18010KT=

ZCZC
FC270900 EHWO     WOENSDRECHT/WOENSDRECHT   NLD   19 m.
TAF EHWO 270923Z 2710/2722 30015G25KT 9999 SCT025
    BECMG 2716/2718 28009KT=

ZCZC
FC270900 EHVK     VOLKEL/VOLKEL   NLD   21 m.
TAF EHVK 270926Z 2710/2722 29015G25KT 9999 SCT025 BKN030
    BECMG 2716/2718 28009KT=

ZCZC
FC270900 EHLW     LEEUWARDEN/LEEUWARDEN   NLD   1 m.
TAF EHLW 270845Z 2710/2722 29015G25KT 9999 FEW020 BKN030
    PROB40 TEMPO 2710/2712 30018G32KT SCT015TCU BKN020
    BECMG 2713/2715 30014KT
    BECMG 2716/2718 31008KT=

ZCZC
FC270900 EHGR     GILZE-RIJEN/GILZE-RIJEN   NLD   14 m.
TAF EHGR 270925Z 2710/2722 30015G25KT 9999 SCT025
    BECMG 2716/2718 28009KT=

ZCZC
FC270900 EHKD     DE KOOY/DE KOOY   NLD   1 m.
TAF COR EHKD 270851Z 2710/2722 29015G25KT 9999 FEW020 BKN030
    PROB40 TEMPO 2710/2711 30018G32KT SCT015TCU BKN020
    BECMG 2712/2714 30014KT
    BECMG 2716/2718 31008KT=